createdAt,value
2022-11-08T00:01:57.615Z,12.90
2022-11-08T00:04:01.046Z,12.80
2022-11-08T00:06:21.768Z,12.80
2022-11-08T00:08:42.317Z,12.80
2022-11-08T00:11:02.845Z,12.80
2022-11-08T00:13:24.481Z,12.80
2022-11-08T00:15:26.959Z,12.90
2022-11-08T00:17:29.996Z,12.90
2022-11-08T00:19:32.534Z,12.90
2022-11-08T00:21:35.035Z,12.90
2022-11-08T00:23:37.577Z,12.80
2022-11-08T00:25:40.174Z,12.80
2022-11-08T00:27:42.644Z,12.80
2022-11-08T00:29:45.152Z,12.80
2022-11-08T00:32:06.046Z,12.70
2022-11-08T00:34:10.478Z,12.80
2022-11-08T00:36:13.423Z,12.70
2022-11-08T00:38:34.441Z,12.80
2022-11-08T00:40:45.594Z,12.70
2022-11-08T00:42:48.385Z,12.80
2022-11-08T00:44:50.915Z,12.80
2022-11-08T00:46:53.614Z,12.80
2022-11-08T00:48:56.372Z,12.80
2022-11-08T00:51:01.229Z,12.80
2022-11-08T00:53:03.843Z,12.80
2022-11-08T00:55:07.237Z,12.70
2022-11-08T00:57:09.766Z,12.70
2022-11-08T00:59:12.769Z,12.70
2022-11-08T01:03:31.941Z,12.70
2022-11-08T01:05:36.288Z,12.70
2022-11-08T01:07:38.773Z,12.60
2022-11-08T01:09:41.279Z,12.60
2022-11-08T01:11:46.875Z,12.50
2022-11-08T01:13:49.957Z,12.50
2022-11-08T01:15:52.486Z,12.50
2022-11-08T01:17:55.003Z,12.50
2022-11-08T01:19:57.525Z,12.60
2022-11-08T01:22:00.006Z,12.50
2022-11-08T01:24:02.649Z,12.60
2022-11-08T01:26:06.365Z,12.60
2022-11-08T01:28:09.350Z,12.60
2022-11-08T01:30:12.285Z,12.70
2022-11-08T01:32:14.780Z,12.70
2022-11-08T01:34:17.281Z,12.80
2022-11-08T01:36:21.145Z,12.80
2022-11-08T01:38:23.730Z,12.80
2022-11-08T01:40:26.682Z,12.80
2022-11-08T01:42:29.186Z,12.80
2022-11-08T01:44:31.704Z,12.90
2022-11-08T01:46:35.719Z,12.90
2022-11-08T01:48:39.238Z,13.00
2022-11-08T01:50:41.701Z,13.00
2022-11-08T01:52:45.997Z,13.00
2022-11-08T01:54:54.163Z,13.00
2022-11-08T01:56:57.526Z,13.00
2022-11-08T01:59:01.839Z,13.00
2022-11-08T02:01:04.389Z,12.90
2022-11-08T02:03:08.717Z,12.90
2022-11-08T02:05:24.520Z,12.90
2022-11-08T02:07:28.022Z,12.90
2022-11-08T02:11:48.567Z,12.90
2022-11-08T02:13:51.078Z,12.90
2022-11-08T02:15:53.562Z,12.90
2022-11-08T02:17:56.046Z,12.90
2022-11-08T02:19:58.557Z,12.90
2022-11-08T02:22:01.995Z,13.00
2022-11-08T02:24:06.476Z,13.00
2022-11-08T02:26:09.196Z,13.00
2022-11-08T02:28:11.725Z,13.00
2022-11-08T02:30:14.200Z,13.00
2022-11-08T02:32:16.735Z,13.10
2022-11-08T02:34:20.137Z,13.10
2022-11-08T02:36:24.483Z,13.10
2022-11-08T02:38:27.018Z,13.10
2022-11-08T02:40:29.536Z,13.20
2022-11-08T02:42:32.038Z,13.20
2022-11-08T02:44:34.533Z,13.20
2022-11-08T02:46:37.042Z,13.20
2022-11-08T02:48:39.534Z,13.30
2022-11-08T02:50:42.036Z,13.30
2022-11-08T02:52:44.533Z,13.30
2022-11-08T02:54:47.041Z,13.30
2022-11-08T02:56:49.513Z,13.30
2022-11-08T02:58:52.102Z,13.30
2022-11-08T03:00:54.700Z,13.30
2022-11-08T03:02:57.564Z,13.30
2022-11-08T03:05:00.138Z,13.30
2022-11-08T03:07:02.835Z,13.40
2022-11-08T03:09:05.313Z,13.40
2022-11-08T03:11:08.010Z,13.50
2022-11-08T03:13:10.584Z,13.50
2022-11-08T03:15:13.699Z,13.40
2022-11-08T03:17:16.285Z,13.50
2022-11-08T03:19:18.805Z,13.50
2022-11-08T03:21:21.307Z,13.50
2022-11-08T03:23:23.825Z,13.50
2022-11-08T03:25:26.662Z,13.50
2022-11-08T03:27:29.381Z,13.50
2022-11-08T03:29:31.893Z,13.50
2022-11-08T03:31:34.412Z,13.50
2022-11-08T03:33:36.881Z,13.40
2022-11-08T03:35:39.369Z,13.40
2022-11-08T03:37:44.005Z,13.30
2022-11-08T03:39:46.511Z,13.30
2022-11-08T03:41:49.003Z,13.20
2022-11-08T03:43:51.506Z,13.20
2022-11-08T03:45:54.021Z,13.00
2022-11-08T03:47:56.486Z,13.00
2022-11-08T03:49:58.985Z,13.00
2022-11-08T03:52:01.563Z,12.80
2022-11-08T03:54:04.260Z,12.80
2022-11-08T03:56:07.790Z,12.70
2022-11-08T03:58:11.490Z,12.70
2022-11-08T04:00:15.611Z,12.60
2022-11-08T04:02:19.186Z,12.60
2022-11-08T04:04:21.887Z,12.60
2022-11-08T04:06:24.365Z,12.50
2022-11-08T04:08:27.014Z,12.50
2022-11-08T04:10:29.489Z,12.40
2022-11-08T04:12:49.931Z,12.40
2022-11-08T04:15:10.507Z,12.40
2022-11-08T04:17:13.049Z,12.40
2022-11-08T04:19:33.274Z,12.30
2022-11-08T04:21:35.885Z,12.30
2022-11-08T04:25:55.202Z,12.20
2022-11-08T04:27:57.678Z,12.10
2022-11-08T04:30:00.162Z,12.10
2022-11-08T04:32:02.649Z,12.00
2022-11-08T04:34:05.142Z,11.90
2022-11-08T04:36:09.226Z,11.90
2022-11-08T04:38:11.682Z,11.80
2022-11-08T04:40:14.261Z,11.80
2022-11-08T04:42:16.884Z,11.70
2022-11-08T04:44:19.352Z,11.60
2022-11-08T04:46:22.582Z,11.50
2022-11-08T04:48:25.083Z,11.50
2022-11-08T04:50:27.553Z,11.40
2022-11-08T04:52:30.193Z,11.40
2022-11-08T04:54:32.674Z,11.30
2022-11-08T04:56:35.188Z,11.30
2022-11-08T04:58:38.256Z,11.30
2022-11-08T05:00:40.754Z,11.30
2022-11-08T05:02:43.364Z,10.60
2022-11-08T05:04:45.974Z,11.20
2022-11-08T05:06:48.492Z,11.20
2022-11-08T05:08:51.015Z,11.20
2022-11-08T05:10:55.320Z,11.20
2022-11-08T05:12:57.820Z,11.20
2022-11-08T05:15:00.498Z,11.20
2022-11-08T05:17:03.019Z,11.10
2022-11-08T05:19:10.475Z,11.10
2022-11-08T05:21:28.098Z,11.10
2022-11-08T05:23:31.234Z,11.10
2022-11-08T05:25:33.725Z,11.10
2022-11-08T05:27:36.313Z,11.10
2022-11-08T05:29:42.214Z,11.10
2022-11-08T05:31:43.312Z,11.10
2022-11-08T05:33:45.845Z,11.10
2022-11-08T05:35:48.607Z,11.10
2022-11-08T05:37:51.085Z,11.20
2022-11-08T05:39:53.610Z,11.20
2022-11-08T05:41:56.118Z,11.20
2022-11-08T05:43:58.607Z,11.20
2022-11-08T05:46:01.081Z,11.20
2022-11-08T05:48:04.498Z,11.20
2022-11-08T05:50:07.654Z,11.20
2022-11-08T05:52:10.121Z,11.20
2022-11-08T05:54:12.930Z,11.20
2022-11-08T05:56:16.008Z,11.30
2022-11-08T05:58:18.642Z,11.20
2022-11-08T06:00:21.350Z,11.20
2022-11-08T06:02:23.992Z,11.20
2022-11-08T06:04:26.529Z,11.10
2022-11-08T06:06:29.010Z,11.20
2022-11-08T06:08:31.629Z,11.20
2022-11-08T06:10:34.082Z,11.20
2022-11-08T06:12:37.574Z,11.20
2022-11-08T06:14:40.073Z,11.20
2022-11-08T06:16:42.566Z,11.20
2022-11-08T06:21:01.938Z,11.30
2022-11-08T06:23:04.474Z,11.20
2022-11-08T06:25:07.545Z,11.30
2022-11-08T06:27:10.050Z,11.20
2022-11-08T06:29:12.571Z,11.20
2022-11-08T06:31:15.087Z,11.20
2022-11-08T06:33:17.773Z,11.20
2022-11-08T06:35:20.588Z,11.10
2022-11-08T06:37:23.081Z,11.10
2022-11-08T06:39:25.577Z,11.10
2022-11-08T06:41:29.401Z,11.10
2022-11-08T06:43:31.908Z,11.10
2022-11-08T06:45:36.189Z,11.10
2022-11-08T06:47:38.666Z,11.10
2022-11-08T06:49:41.167Z,11.10
2022-11-08T06:51:43.677Z,11.10
2022-11-08T06:53:46.188Z,11.10
2022-11-08T06:55:48.669Z,11.10
2022-11-08T06:57:51.362Z,11.00
2022-11-08T06:59:53.864Z,11.10
2022-11-08T07:01:56.576Z,11.00
2022-11-08T07:03:59.174Z,11.00
2022-11-08T07:06:03.260Z,11.10
2022-11-08T07:08:05.803Z,11.00
2022-11-08T07:10:09.237Z,11.10
2022-11-08T07:12:11.859Z,11.10
2022-11-08T07:14:14.343Z,11.10
2022-11-08T07:16:16.871Z,11.10
2022-11-08T07:18:19.979Z,11.20
2022-11-08T07:20:23.001Z,11.20
2022-11-08T07:22:25.566Z,11.30
2022-11-08T07:24:28.283Z,11.40
2022-11-08T07:26:30.758Z,11.60
2022-11-08T07:28:33.275Z,11.70
2022-11-08T07:30:36.074Z,11.90
2022-11-08T07:32:38.559Z,12.00
2022-11-08T07:34:41.082Z,12.20
2022-11-08T07:36:43.610Z,12.30
2022-11-08T07:38:47.097Z,12.50
2022-11-08T07:40:50.881Z,12.60
2022-11-08T07:44:57.797Z,12.80
2022-11-08T07:47:00.269Z,12.80
2022-11-08T07:49:02.785Z,12.90
2022-11-08T07:51:05.570Z,12.90
2022-11-08T07:53:08.082Z,13.00
2022-11-08T07:55:10.675Z,13.10
2022-11-08T07:57:13.605Z,13.30
2022-11-08T07:59:16.177Z,13.40
2022-11-08T08:01:18.851Z,13.60
2022-11-08T08:03:22.327Z,13.90
2022-11-08T08:05:25.693Z,14.10
2022-11-08T08:07:28.218Z,14.20
2022-11-08T08:09:30.913Z,14.30
2022-11-08T08:11:33.898Z,14.20
2022-11-08T08:13:36.565Z,14.30
2022-11-08T08:15:39.142Z,14.30
2022-11-08T08:17:41.793Z,14.40
2022-11-08T08:22:06.191Z,14.30
2022-11-08T08:24:09.882Z,14.20
2022-11-08T08:26:12.862Z,14.20
2022-11-08T08:28:20.673Z,14.20
2022-11-08T08:30:26.332Z,14.40
2022-11-08T08:32:31.551Z,14.50
2022-11-08T08:34:33.671Z,14.50
2022-11-08T08:36:36.249Z,14.60
2022-11-08T08:38:44.851Z,14.70
2022-11-08T08:40:47.624Z,14.80
2022-11-08T08:42:50.165Z,14.90
2022-11-08T08:44:52.628Z,15.00
2022-11-08T08:46:56.039Z,15.10
2022-11-08T08:48:58.725Z,15.20
2022-11-08T08:51:01.213Z,15.30
2022-11-08T08:53:04.527Z,15.40
2022-11-08T08:55:07.807Z,15.50
2022-11-08T08:57:10.318Z,15.60
2022-11-08T09:03:22.764Z,15.80
2022-11-08T09:05:25.438Z,15.90
2022-11-08T09:07:28.185Z,16.00
2022-11-08T09:09:30.648Z,16.10
2022-11-08T09:11:33.118Z,16.10
2022-11-08T09:13:35.718Z,16.10
2022-11-08T09:15:39.081Z,16.20
2022-11-08T09:17:41.810Z,16.40
2022-11-08T09:19:45.914Z,16.40
2022-11-08T09:21:48.661Z,16.50
2022-11-08T09:23:51.419Z,16.50
2022-11-08T09:25:56.713Z,16.50
2022-11-08T09:27:59.265Z,16.50
2022-11-08T09:30:01.842Z,16.40
2022-11-08T09:32:04.390Z,16.40
2022-11-08T09:34:06.920Z,16.40
2022-11-08T09:36:12.072Z,16.10
2022-11-08T09:38:14.863Z,16.40
2022-11-08T09:40:18.298Z,16.40
2022-11-08T09:42:25.502Z,16.40
2022-11-08T09:44:37.573Z,16.40
2022-11-08T09:46:41.894Z,16.40
2022-11-08T09:48:45.063Z,16.50
2022-11-08T09:50:47.976Z,16.50
2022-11-08T09:52:52.746Z,16.30
2022-11-08T09:54:58.006Z,16.30
2022-11-08T09:57:02.997Z,16.30
2022-11-08T09:59:07.324Z,16.20
2022-11-08T10:01:11.023Z,16.30
2022-11-08T10:03:15.080Z,16.40
2022-11-08T10:05:18.961Z,16.50
2022-11-08T10:07:25.265Z,16.60
2022-11-08T10:09:33.085Z,16.60
2022-11-08T10:11:42.210Z,16.80
2022-11-08T10:13:48.710Z,16.80
2022-11-08T10:15:53.366Z,16.90
2022-11-08T10:18:06.246Z,17.00
2022-11-08T10:20:12.637Z,17.10
2022-11-08T10:22:17.780Z,17.20
2022-11-08T10:24:22.394Z,17.20
2022-11-08T10:26:27.325Z,17.20
2022-11-08T10:28:31.866Z,17.20
2022-11-08T10:30:35.548Z,17.10
2022-11-08T10:32:38.357Z,17.10
2022-11-08T10:34:43.381Z,17.10
2022-11-08T10:36:46.916Z,17.00
2022-11-08T10:38:52.509Z,16.90
2022-11-08T10:40:56.861Z,16.90
2022-11-08T10:43:05.484Z,16.90
2022-11-08T10:45:08.113Z,16.90
2022-11-08T10:47:13.084Z,17.00
2022-11-08T10:49:17.392Z,16.90
2022-11-08T10:51:19.965Z,16.90
2022-11-08T10:53:24.676Z,16.90
2022-11-08T10:55:28.207Z,16.90
2022-11-08T10:57:38.585Z,16.80
2022-11-08T10:59:41.707Z,16.80
2022-11-08T11:01:46.519Z,16.80
2022-11-08T11:03:50.144Z,16.80
2022-11-08T11:05:57.496Z,16.80
2022-11-08T11:10:19.344Z,16.80
2022-11-08T11:12:21.992Z,16.80
2022-11-08T11:14:24.509Z,16.70
2022-11-08T11:16:26.989Z,16.70
2022-11-08T11:18:31.014Z,16.60
2022-11-08T11:20:33.517Z,16.70
2022-11-08T11:22:35.998Z,16.60
2022-11-08T11:24:40.778Z,16.70
2022-11-08T11:26:45.053Z,16.60
2022-11-08T11:29:01.975Z,16.60
2022-11-08T11:31:06.388Z,16.60
2022-11-08T11:33:12.880Z,16.60
2022-11-08T11:35:15.981Z,16.60
2022-11-08T11:37:20.259Z,16.50
2022-11-08T11:39:24.761Z,16.50
2022-11-08T11:41:28.570Z,16.40
2022-11-08T11:43:32.763Z,16.50
2022-11-08T11:45:37.723Z,16.40
2022-11-08T11:47:42.298Z,16.50
2022-11-08T11:49:45.232Z,16.40
2022-11-08T11:51:47.750Z,16.40
2022-11-08T11:53:50.314Z,16.40
2022-11-08T11:55:57.798Z,16.40
2022-11-08T11:58:03.469Z,16.40
2022-11-08T12:00:09.268Z,16.40
2022-11-08T12:02:35.019Z,16.50
2022-11-08T12:04:42.600Z,16.40
2022-11-08T12:06:47.151Z,16.50
2022-11-08T12:08:54.029Z,16.50
2022-11-08T12:11:01.445Z,16.50
2022-11-08T12:13:05.736Z,16.60
2022-11-08T12:15:10.320Z,16.50
2022-11-08T12:17:20.658Z,16.50
2022-11-08T12:19:28.312Z,16.60
2022-11-08T12:21:32.944Z,16.60
2022-11-08T12:23:49.027Z,16.60
2022-11-08T12:25:53.757Z,16.60
2022-11-08T12:27:58.361Z,16.50
2022-11-08T12:30:02.710Z,16.50
2022-11-08T12:32:13.269Z,16.50
2022-11-08T12:34:20.943Z,16.50
2022-11-08T12:36:25.241Z,16.50
2022-11-08T12:38:30.127Z,16.60
2022-11-08T12:40:35.426Z,16.50
2022-11-08T12:42:41.910Z,16.50
2022-11-08T12:44:51.697Z,16.50
2022-11-08T12:46:58.498Z,16.60
2022-11-08T12:51:27.225Z,16.70
2022-11-08T12:53:34.406Z,16.80
2022-11-08T12:55:37.863Z,16.90
2022-11-08T12:57:40.426Z,16.90
2022-11-08T12:59:44.642Z,16.90
2022-11-08T13:01:48.003Z,16.90
2022-11-08T13:04:16.194Z,16.90
2022-11-08T13:06:20.521Z,16.90
2022-11-08T13:08:25.026Z,16.80
2022-11-08T13:10:30.312Z,16.80
2022-11-08T13:14:34.935Z,16.80
2022-11-08T13:16:38.562Z,16.90
2022-11-08T13:18:44.853Z,16.90
2022-11-08T13:20:48.269Z,16.90
2022-11-08T13:23:07.722Z,16.90
2022-11-08T13:25:27.655Z,16.90
2022-11-08T13:27:34.037Z,16.90
2022-11-08T13:29:36.512Z,16.90
2022-11-08T13:31:48.245Z,16.90
2022-11-08T13:33:54.406Z,16.90
2022-11-08T13:36:06.432Z,16.90
2022-11-08T13:38:26.495Z,17.00
2022-11-08T13:41:00.647Z,17.00
2022-11-08T13:43:21.938Z,17.00
2022-11-08T13:45:26.368Z,17.10
2022-11-08T13:47:50.411Z,17.00
2022-11-08T13:49:52.921Z,17.00
2022-11-08T13:52:14.610Z,17.10
2022-11-08T13:54:34.949Z,17.00
2022-11-08T13:56:56.608Z,17.00
2022-11-08T13:58:59.090Z,16.90
2022-11-08T14:01:02.809Z,16.90
2022-11-08T14:03:17.271Z,16.80
2022-11-08T14:07:43.866Z,16.70
2022-11-08T14:09:48.274Z,16.50
2022-11-08T14:11:53.957Z,16.50
2022-11-08T14:14:02.929Z,16.50
2022-11-08T14:16:07.545Z,16.50
2022-11-08T14:18:11.971Z,16.50
2022-11-08T14:20:18.931Z,16.50
2022-11-08T14:22:22.735Z,16.40
2022-11-08T14:24:27.047Z,16.40
2022-11-08T14:26:30.839Z,16.40
2022-11-08T14:28:34.335Z,16.40
2022-11-08T14:30:36.826Z,16.40
2022-11-08T14:32:39.344Z,16.40
2022-11-08T14:34:42.628Z,16.40
2022-11-08T14:36:45.404Z,16.40
2022-11-08T14:38:49.210Z,16.30
2022-11-08T14:40:53.020Z,16.40
2022-11-08T14:42:55.776Z,16.40
2022-11-08T14:44:58.254Z,16.40
2022-11-08T14:47:00.731Z,16.40
2022-11-08T14:49:09.429Z,16.40
2022-11-08T14:51:13.505Z,16.30
2022-11-08T14:53:23.862Z,16.40
2022-11-08T14:55:28.154Z,16.50
2022-11-08T14:57:31.555Z,16.40
2022-11-08T14:59:34.046Z,16.40
2022-11-08T15:01:36.590Z,16.40
2022-11-08T15:03:40.830Z,16.30
2022-11-08T15:05:44.542Z,16.30
2022-11-08T15:07:47.073Z,16.30
2022-11-08T15:09:49.730Z,16.30
2022-11-08T15:11:54.093Z,16.30
2022-11-08T15:13:58.386Z,16.20
2022-11-08T15:16:02.478Z,16.30
2022-11-08T15:18:10.342Z,16.30
2022-11-08T15:20:21.063Z,16.30
2022-11-08T15:22:24.422Z,16.20
2022-11-08T15:24:29.832Z,16.20
2022-11-08T15:26:33.508Z,16.20
2022-11-08T15:28:36.006Z,16.10
2022-11-08T15:30:39.402Z,16.10
2022-11-08T15:32:41.914Z,16.10
2022-11-08T15:34:45.282Z,16.10
2022-11-08T15:36:48.430Z,16.20
2022-11-08T15:38:51.032Z,16.10
2022-11-08T15:40:54.260Z,16.10
2022-11-08T15:42:56.841Z,16.10
2022-11-08T15:45:01.020Z,16.00
2022-11-08T15:47:03.483Z,16.00
2022-11-08T15:49:14.934Z,16.00
2022-11-08T15:51:18.787Z,15.90
2022-11-08T15:53:21.353Z,16.00
2022-11-08T15:55:25.688Z,15.90
2022-11-08T15:57:28.157Z,15.90
2022-11-08T16:01:48.551Z,15.80
2022-11-08T16:03:51.994Z,15.80
2022-11-08T16:05:54.666Z,15.90
2022-11-08T16:07:57.322Z,15.80
2022-11-08T16:09:59.801Z,15.80
2022-11-08T16:12:02.487Z,15.80
2022-11-08T16:14:05.207Z,15.80
2022-11-08T16:16:11.348Z,15.80
2022-11-08T16:18:15.070Z,15.80
2022-11-08T16:20:26.994Z,15.80
2022-11-08T16:22:32.760Z,15.80
2022-11-08T16:24:35.293Z,15.80
2022-11-08T16:26:38.700Z,15.70
2022-11-08T16:28:41.307Z,15.80
2022-11-08T16:30:46.136Z,15.80
2022-11-08T16:32:48.837Z,15.70
2022-11-08T16:34:51.354Z,15.70
2022-11-08T16:36:54.623Z,15.80
2022-11-08T16:38:58.740Z,15.70
2022-11-08T16:41:02.511Z,15.20
2022-11-08T16:43:07.162Z,15.70
2022-11-08T16:45:11.535Z,15.80
2022-11-08T16:47:17.132Z,15.80
2022-11-08T16:49:22.421Z,15.90
2022-11-08T16:51:26.273Z,15.90
2022-11-08T16:53:29.999Z,16.00
2022-11-08T16:55:33.952Z,16.00
2022-11-08T16:57:37.641Z,15.90
2022-11-08T16:59:41.435Z,16.00
2022-11-08T17:01:45.427Z,16.00
2022-11-08T17:03:49.295Z,16.00
2022-11-08T17:05:54.225Z,16.00
2022-11-08T17:07:58.156Z,16.10
2022-11-08T17:10:02.064Z,16.10
2022-11-08T17:12:06.270Z,16.10
2022-11-08T17:14:10.357Z,16.30
2022-11-08T17:16:13.363Z,16.20
2022-11-08T17:18:17.474Z,16.30
2022-11-08T17:20:20.363Z,16.30
2022-11-08T17:22:24.777Z,16.20
2022-11-08T17:24:28.391Z,16.20
2022-11-08T17:26:30.906Z,16.30
2022-11-08T17:28:33.480Z,16.30
2022-11-08T17:30:36.514Z,16.10
2022-11-08T17:32:39.356Z,16.20
2022-11-08T17:34:41.851Z,16.20
2022-11-08T17:36:44.362Z,16.20
2022-11-08T17:38:46.967Z,16.20
2022-11-08T17:40:49.461Z,16.20
2022-11-08T17:42:51.963Z,16.30
2022-11-08T17:44:56.238Z,16.30
2022-11-08T17:46:58.867Z,16.30
2022-11-08T17:49:01.357Z,16.30
2022-11-08T17:51:04.073Z,16.30
2022-11-08T17:53:06.551Z,16.30
2022-11-08T17:55:09.032Z,16.30
2022-11-08T17:57:11.689Z,16.30
2022-11-08T17:59:15.756Z,16.20
2022-11-08T18:01:18.313Z,16.30
2022-11-08T18:03:21.593Z,16.30
2022-11-08T18:05:24.094Z,16.30
2022-11-08T18:07:26.781Z,16.30
2022-11-08T18:09:29.515Z,16.30
2022-11-08T18:11:32.185Z,16.30
2022-11-08T18:13:35.100Z,16.30
2022-11-08T18:15:37.620Z,16.30
2022-11-08T18:17:40.117Z,16.30
2022-11-08T18:19:44.150Z,16.40
2022-11-08T18:21:46.729Z,16.40
2022-11-08T18:23:49.233Z,16.50
2022-11-08T18:25:52.684Z,16.60
2022-11-08T18:27:55.532Z,16.50
2022-11-08T18:29:58.099Z,16.50
2022-11-08T18:32:01.250Z,16.50
2022-11-08T18:34:03.852Z,16.40
2022-11-08T18:36:07.237Z,16.40
2022-11-08T18:38:09.720Z,16.40
2022-11-08T18:40:12.691Z,16.30
2022-11-08T18:42:15.214Z,16.20
2022-11-08T18:44:17.712Z,16.20
2022-11-08T18:46:21.232Z,16.20
2022-11-08T18:48:23.710Z,16.20
2022-11-08T18:50:26.308Z,16.20
2022-11-08T18:52:28.805Z,16.10
2022-11-08T18:54:31.278Z,16.20
2022-11-08T18:56:33.884Z,16.10
2022-11-08T18:58:36.551Z,16.10
2022-11-08T19:02:53.763Z,16.10
2022-11-08T19:04:56.714Z,16.10
2022-11-08T19:06:59.268Z,16.20
2022-11-08T19:09:01.921Z,16.10
2022-11-08T19:11:06.038Z,16.10
2022-11-08T19:13:08.545Z,16.10
2022-11-08T19:15:11.323Z,16.10
2022-11-08T19:17:14.685Z,16.00
2022-11-08T19:19:17.189Z,16.10
2022-11-08T19:21:20.494Z,16.10
2022-11-08T19:23:23.194Z,16.10
2022-11-08T19:25:25.787Z,16.20
2022-11-08T19:27:28.409Z,16.10
2022-11-08T19:29:31.100Z,16.10
2022-11-08T19:31:35.633Z,16.10
2022-11-08T19:33:38.122Z,16.00
2022-11-08T19:35:40.642Z,16.00
2022-11-08T19:37:43.938Z,16.00
2022-11-08T19:39:46.441Z,16.00
2022-11-08T19:41:48.912Z,16.10
2022-11-08T19:43:51.810Z,16.00
2022-11-08T19:45:54.356Z,16.10
2022-11-08T19:47:56.843Z,16.00
2022-11-08T19:49:59.359Z,16.00
2022-11-08T19:52:01.973Z,15.40
2022-11-08T19:54:05.423Z,16.10
2022-11-08T19:58:23.363Z,16.10
2022-11-08T20:00:26.045Z,16.10
2022-11-08T20:02:28.561Z,16.20
2022-11-08T20:04:31.110Z,16.20
2022-11-08T20:06:34.106Z,16.30
2022-11-08T20:08:36.722Z,16.20
2022-11-08T20:10:39.228Z,16.20
2022-11-08T20:12:41.741Z,16.20
2022-11-08T20:14:47.608Z,16.30
2022-11-08T20:16:53.514Z,16.40
2022-11-08T20:18:55.712Z,16.40
2022-11-08T20:20:58.332Z,16.30
2022-11-08T20:23:00.815Z,16.30
2022-11-08T20:25:03.490Z,16.40
2022-11-08T20:27:06.009Z,16.40
2022-11-08T20:29:08.707Z,16.40
2022-11-08T20:31:13.265Z,16.40
2022-11-08T20:33:36.491Z,16.50
2022-11-08T20:35:39.153Z,16.50
2022-11-08T20:37:41.653Z,16.50
2022-11-08T20:39:44.156Z,16.40
2022-11-08T20:41:46.666Z,16.30
2022-11-08T20:43:49.144Z,16.30
2022-11-08T20:45:51.970Z,16.30
2022-11-08T20:47:54.535Z,16.30
2022-11-08T20:49:57.022Z,16.10
2022-11-08T20:51:59.581Z,16.10
2022-11-08T20:54:02.297Z,16.10
2022-11-08T20:56:06.533Z,16.10
2022-11-08T20:58:09.092Z,16.00
2022-11-08T21:02:28.837Z,15.90
2022-11-08T21:04:31.719Z,15.90
2022-11-08T21:06:36.426Z,15.90
2022-11-08T21:10:47.205Z,15.80
2022-11-08T21:12:49.937Z,15.80
2022-11-08T21:14:52.601Z,15.80
2022-11-08T21:19:00.722Z,15.80
2022-11-08T21:21:04.754Z,15.80
2022-11-08T21:23:07.621Z,15.80
2022-11-08T21:25:10.072Z,15.80
2022-11-08T21:27:13.135Z,15.80
2022-11-08T21:29:15.783Z,15.80
2022-11-08T21:31:18.360Z,15.80
2022-11-08T21:33:20.941Z,15.80
2022-11-08T21:35:23.577Z,15.80
2022-11-08T21:37:26.035Z,15.80
2022-11-08T21:39:28.556Z,15.80
2022-11-08T21:41:31.013Z,15.80
2022-11-08T21:43:35.348Z,15.90
2022-11-08T21:45:37.826Z,15.90
2022-11-08T21:47:40.437Z,15.90
2022-11-08T21:49:43.024Z,15.90
2022-11-08T21:51:45.901Z,15.40
2022-11-08T21:53:54.704Z,15.90
2022-11-08T21:55:57.156Z,15.90
2022-11-08T21:58:01.243Z,15.90
2022-11-08T22:00:05.503Z,15.80
2022-11-08T22:02:10.793Z,15.80
2022-11-08T22:04:14.410Z,15.80
2022-11-08T22:08:35.168Z,15.80
2022-11-08T22:10:37.751Z,15.80
2022-11-08T22:12:40.375Z,15.80
2022-11-08T22:14:42.861Z,15.80
2022-11-08T22:16:45.353Z,15.80
2022-11-08T22:19:04.353Z,15.80
2022-11-08T22:21:10.209Z,15.80
2022-11-08T22:23:12.832Z,15.80
2022-11-08T22:25:15.320Z,15.80
2022-11-08T22:27:17.789Z,15.80
2022-11-08T22:29:20.273Z,15.80
2022-11-08T22:31:22.773Z,15.80
2022-11-08T22:33:25.238Z,15.80
2022-11-08T22:35:27.717Z,15.80
2022-11-08T22:37:46.239Z,15.70
2022-11-08T22:39:52.607Z,15.80
2022-11-08T22:41:56.976Z,15.80
2022-11-08T22:43:59.784Z,15.70
2022-11-08T22:46:02.471Z,15.70
2022-11-08T22:48:05.018Z,15.70
2022-11-08T22:50:08.125Z,15.70
2022-11-08T22:52:10.705Z,15.70
2022-11-08T22:54:13.204Z,15.80
2022-11-08T22:56:15.689Z,15.70
2022-11-08T22:58:18.170Z,15.70
2022-11-08T23:00:21.136Z,15.70
2022-11-08T23:02:23.609Z,15.70
2022-11-08T23:04:26.226Z,15.80
2022-11-08T23:06:28.722Z,15.80
2022-11-08T23:08:31.489Z,15.70
2022-11-08T23:10:36.204Z,15.80
2022-11-08T23:12:56.490Z,15.80
2022-11-08T23:15:18.561Z,15.80
2022-11-08T23:17:21.031Z,15.80
2022-11-08T23:19:41.789Z,15.80
2022-11-08T23:22:02.348Z,15.80
2022-11-08T23:24:20.411Z,15.70
2022-11-08T23:26:42.485Z,15.60
2022-11-08T23:29:04.408Z,15.70
2022-11-08T23:31:26.523Z,15.70
2022-11-08T23:33:29.010Z,15.70
2022-11-08T23:35:31.543Z,15.70
2022-11-08T23:37:34.001Z,15.60
2022-11-08T23:39:38.992Z,15.60
2022-11-08T23:41:59.169Z,15.60
2022-11-08T23:44:19.713Z,15.50
2022-11-08T23:46:22.260Z,15.50
2022-11-08T23:48:26.500Z,15.50
2022-11-08T23:50:29.217Z,15.50
2022-11-08T23:54:47.323Z,15.50
2022-11-08T23:56:50.834Z,15.50
2022-11-08T23:58:53.818Z,15.50
